Time;durP1;ratioP1;P1;durP2;ratioP2;P2;SDS_P1;SDS_P2;PMS_P1;PMS_P2;Temp;Humidity;BMP_temperature;BMP_pressure;BME280_temperature;BME280_humidity;BME280_pressure;Samples;Min_cycle;Max_cycle;Signal;HPM_P1;HPM_P2
2023/09/04 00:04:21;;;;;;;3.92;3.00;;;20.20;73.70;;;;;;10380887;28;20056;-60
2023/09/04 00:09:22;;;;;;;4.97;3.10;;;20.20;73.70;;;;;;10380817;28;20029;-60
2023/09/04 00:14:23;;;;;;;4.28;3.15;;;20.20;73.60;;;;;;10407984;28;20614;-59
2023/09/04 00:19:24;;;;;;;4.13;3.20;;;20.20;73.50;;;;;;10378039;28;20044;-60
2023/09/04 00:24:24;;;;;;;4.00;2.75;;;20.20;73.50;;;;;;10367670;28;20030;-59
2023/09/04 00:29:25;;;;;;;3.33;2.53;;;20.20;73.40;;;;;;10391072;28;20026;-61
2023/09/04 00:34:26;;;;;;;4.05;3.10;;;20.20;73.30;;;;;;10367952;28;20527;-60
2023/09/04 00:39:27;;;;;;;3.63;2.53;;;20.20;73.30;;;;;;10390214;28;20369;-59
2023/09/04 00:44:28;;;;;;;3.67;2.55;;;20.10;73.20;;;;;;10408402;28;20041;-60
2023/09/04 00:49:29;;;;;;;5.03;3.50;;;20.10;75.90;;;;;;10389984;28;20038;-60
2023/09/04 00:54:31;;;;;;;5.00;2.80;;;20.20;73.30;;;;;;10399045;28;20133;-60
2023/09/04 00:59:32;;;;;;;3.35;2.70;;;20.20;74.40;;;;;;10415049;28;20033;-60
2023/09/04 01:04:33;;;;;;;2.92;2.38;;;20.20;75.20;;;;;;10415316;28;20091;-60
2023/09/04 01:09:35;;;;;;;3.53;2.80;;;20.30;75.10;;;;;;10400583;28;20036;-60
2023/09/04 01:14:36;;;;;;;4.80;2.40;;;20.20;74.90;;;;;;10400722;28;20406;-60
2023/09/04 01:19:39;;;;;;;4.53;2.60;;;20.30;75.10;;;;;;10413528;28;20507;-60
2023/09/04 01:24:39;;;;;;;2.97;1.98;;;20.20;74.50;;;;;;10386515;28;20053;-60
2023/09/04 01:30:03;;;;;;;4.78;2.88;;;20.20;74.20;;;;;;10404449;28;20441;-60
2023/09/04 01:35:09;;;;;;;3.65;2.50;;;20.20;73.90;;;;;;10373260;28;20030;-60
2023/09/04 01:40:11;;;;;;;4.38;3.00;;;20.20;73.80;;;;;;10401723;28;20382;-59
2023/09/04 01:45:11;;;;;;;3.50;2.33;;;20.20;73.60;;;;;;10384176;28;20033;-60
2023/09/04 01:50:13;;;;;;;3.85;2.60;;;20.20;73.70;;;;;;10372416;28;20029;-60
2023/09/04 01:55:14;;;;;;;3.55;3.10;;;20.10;73.60;;;;;;10396728;28;20379;-60
2023/09/04 02:00:15;;;;;;;3.17;2.22;;;20.20;73.60;;;;;;10412796;28;20024;-60
2023/09/04 02:05:16;;;;;;;3.50;2.22;;;20.10;73.50;;;;;;10413218;28;20526;-60
2023/09/04 02:10:17;;;;;;;4.75;2.20;;;20.10;73.50;;;;;;10412575;28;20155;-60
2023/09/04 02:15:17;;;;;;;6.15;2.25;;;20.10;73.40;;;;;;10412669;28;20531;-60
2023/09/04 02:20:18;;;;;;;3.58;2.50;;;20.10;73.40;;;;;;10360592;28;20032;-60
2023/09/04 02:25:19;;;;;;;3.38;2.30;;;20.10;73.30;;;;;;10370960;28;20505;-60
2023/09/04 02:30:20;;;;;;;3.28;2.25;;;20.10;73.30;;;;;;10404125;28;20033;-59
2023/09/04 02:35:20;;;;;;;3.47;2.42;;;20.10;73.30;;;;;;10353095;28;20060;-60
2023/09/04 02:40:21;;;;;;;2.33;1.83;;;20.00;73.20;;;;;;10373536;28;20061;-60
2023/09/04 02:45:22;;;;;;;2.90;2.10;;;20.00;73.20;;;;;;10370560;28;20048;-60
2023/09/04 02:50:23;;;;;;;3.67;2.38;;;20.00;73.10;;;;;;10370071;28;20252;-60
2023/09/04 02:55:24;;;;;;;3.25;1.85;;;20.00;73.10;;;;;;10368877;28;20366;-61
2023/09/04 03:00:24;;;;;;;2.85;2.08;;;20.00;73.00;;;;;;10376181;28;20018;-60
2023/09/04 03:05:27;;;;;;;3.42;1.60;;;20.00;73.00;;;;;;10369934;28;20030;-60
2023/09/04 03:10:31;;;;;;;2.28;1.73;;;20.00;72.90;;;;;;10369090;28;20029;-60
2023/09/04 03:15:31;;;;;;;3.50;2.50;;;20.00;72.90;;;;;;10403575;28;20167;-60
2023/09/04 03:20:32;;;;;;;2.80;1.90;;;20.00;72.90;;;;;;10408419;28;20376;-60
2023/09/04 03:25:35;;;;;;;4.40;1.88;;;20.00;72.70;;;;;;10374301;28;20097;-60
2023/09/04 03:30:36;;;;;;;2.20;1.52;;;20.00;72.80;;;;;;10387580;28;20099;-60
2023/09/04 03:35:37;;;;;;;6.65;2.20;;;20.00;72.80;;;;;;10368651;28;20103;-60
2023/09/04 03:40:38;;;;;;;3.72;1.95;;;19.90;73.10;;;;;;10383698;28;20029;-60
2023/09/04 03:45:39;;;;;;;2.95;2.15;;;20.00;73.40;;;;;;10387280;28;20040;-60
2023/09/04 03:50:39;;;;;;;4.05;2.00;;;20.00;73.30;;;;;;10380878;28;20048;-60
2023/09/04 03:55:40;;;;;;;2.30;1.65;;;20.00;73.40;;;;;;10383203;28;20053;-60
2023/09/04 04:00:41;;;;;;;1.95;1.60;;;20.00;73.40;;;;;;10389613;28;20304;-61
2023/09/04 04:05:41;;;;;;;4.65;1.88;;;20.00;73.50;;;;;;10380958;28;20099;-60
2023/09/04 04:10:44;;;;;;;2.75;1.50;;;20.00;73.30;;;;;;10380148;28;20263;-60
2023/09/04 04:15:45;;;;;;;2.30;1.67;;;20.00;73.40;;;;;;10396277;28;20088;-60
2023/09/04 04:20:46;;;;;;;3.35;1.65;;;20.00;73.90;;;;;;10406683;28;20571;-59
2023/09/04 04:25:49;;;;;;;2.80;2.00;;;20.00;72.50;;;;;;10368444;28;20171;-60
2023/09/04 04:30:49;;;;;;;3.00;1.98;;;19.90;72.50;;;;;;10382871;28;20084;-60
2023/09/04 04:35:53;;;;;;;2.78;1.63;;;19.90;72.50;;;;;;10363273;28;20038;-60
2023/09/04 04:40:56;;;;;;;3.75;2.08;;;19.90;72.40;;;;;;10374045;28;20030;-59
2023/09/04 04:45:57;;;;;;;2.38;1.45;;;19.90;72.40;;;;;;10375238;28;20040;-60
2023/09/04 04:50:57;;;;;;;3.13;1.80;;;19.80;72.30;;;;;;10381023;28;20056;-62
2023/09/04 04:56:00;;;;;;;3.72;1.88;;;19.80;73.30;;;;;;10366326;28;20374;-62
2023/09/04 05:01:00;;;;;;;2.92;1.90;;;19.80;72.40;;;;;;10390586;28;20104;-59
2023/09/04 05:06:02;;;;;;;2.67;1.65;;;19.80;72.50;;;;;;10388593;28;20025;-60
2023/09/04 05:11:06;;;;;;;3.58;2.05;;;19.80;71.80;;;;;;10391093;28;20061;-59
2023/09/04 05:16:06;;;;;;;5.13;1.77;;;19.80;71.80;;;;;;10372213;28;20089;-60
2023/09/04 05:21:07;;;;;;;9.00;2.53;;;19.80;72.50;;;;;;10366135;28;20109;-60
2023/09/04 05:26:09;;;;;;;8.13;2.08;;;20.00;72.00;;;;;;10372429;28;20080;-58
2023/09/04 05:31:10;;;;;;;4.63;2.40;;;20.00;72.40;;;;;;10393158;28;20565;-58
2023/09/04 05:36:11;;;;;;;6.43;2.42;;;20.00;72.20;;;;;;10372434;28;20041;-59
2023/09/04 05:41:11;;;;;;;9.55;2.40;;;20.00;72.20;;;;;;10371207;28;20076;-57
2023/09/04 05:46:12;;;;;;;9.23;2.60;;;20.10;72.30;;;;;;10406898;28;20492;-58
2023/09/04 05:51:13;;;;;;;5.35;2.33;;;20.10;72.20;;;;;;10405444;28;20037;-59
2023/09/04 05:56:14;;;;;;;5.22;2.00;;;20.10;72.10;;;;;;10372323;28;20038;-59
2023/09/04 06:01:17;;;;;;;16.42;2.80;;;20.10;72.50;;;;;;10392484;28;20026;-59
2023/09/04 06:06:18;;;;;;;10.63;2.95;;;20.10;72.20;;;;;;10383409;28;20033;-58
2023/09/04 06:11:18;;;;;;;8.32;2.80;;;20.10;72.10;;;;;;10370614;28;20535;-58
2023/09/04 06:16:19;;;;;;;17.92;3.25;;;20.00;72.40;;;;;;10385730;28;20041;-58
2023/09/04 06:21:20;;;;;;;3.63;2.10;;;20.10;72.70;;;;;;10369927;28;20045;-59
2023/09/04 06:26:21;;;;;;;4.80;2.60;;;20.00;72.80;;;;;;10370522;28;20034;-59
2023/09/04 06:31:22;;;;;;;9.27;2.78;;;19.90;72.40;;;;;;10390804;28;20370;-58
2023/09/04 06:36:24;;;;;;;5.05;2.75;;;19.90;72.40;;;;;;10369651;28;20112;-59
2023/09/04 06:41:24;;;;;;;7.43;2.40;;;19.90;72.50;;;;;;10369766;28;20111;-58
2023/09/04 06:46:25;;;;;;;7.47;3.03;;;19.90;73.20;;;;;;10391432;28;20086;-58
2023/09/04 06:51:28;;;;;;;4.78;3.30;;;20.00;73.40;;;;;;10409953;28;20076;-59
2023/09/04 06:56:29;;;;;;;8.77;2.90;;;20.00;73.30;;;;;;10410617;28;20096;-58
2023/09/04 07:01:30;;;;;;;4.97;2.92;;;20.00;73.50;;;;;;10370866;28;20029;-59
2023/09/04 07:06:30;;;;;;;10.48;2.70;;;20.00;73.40;;;;;;10369105;28;20045;-59
2023/09/04 07:11:31;;;;;;;4.80;2.80;;;20.00;73.40;;;;;;10368263;28;20401;-58
2023/09/04 07:16:37;;;;;;;7.93;2.78;;;20.00;73.50;;;;;;10389302;28;20041;-58
2023/09/04 07:21:40;;;;;;;4.80;2.80;;;20.10;74.10;;;;;;10405626;28;20493;-58
2023/09/04 07:26:40;;;;;;;8.35;2.70;;;20.10;73.60;;;;;;10367730;28;20069;-59
2023/09/04 07:31:41;;;;;;;9.88;2.78;;;20.10;73.60;;;;;;10370692;28;20073;-58
2023/09/04 07:36:42;;;;;;;7.47;3.40;;;20.10;73.20;;;;;;10367950;28;20034;-58
2023/09/04 07:41:43;;;;;;;9.70;2.97;;;20.00;73.30;;;;;;10367159;28;20042;-58
2023/09/04 07:46:43;;;;;;;7.10;2.72;;;20.00;73.90;;;;;;10367383;28;20092;-59
2023/09/04 07:51:44;;;;;;;5.70;2.50;;;20.10;73.50;;;;;;10367372;28;20038;-57
2023/09/04 07:56:45;;;;;;;8.63;3.30;;;20.20;73.50;;;;;;10368083;28;20481;-58
2023/09/04 08:01:46;;;;;;;16.25;3.58;;;20.10;73.00;;;;;;10366493;28;20026;-57
2023/09/04 08:06:47;;;;;;;7.75;2.88;;;20.10;73.30;;;;;;10367242;28;20030;-58
2023/09/04 08:11:47;;;;;;;8.75;2.88;;;20.10;73.50;;;;;;10367495;28;20041;-57
2023/09/04 08:16:48;;;;;;;16.98;3.67;;;20.10;73.50;;;;;;10366116;28;20042;-58
2023/09/04 08:21:49;;;;;;;8.80;3.13;;;20.10;73.50;;;;;;10366512;28;20032;-58
2023/09/04 08:26:50;;;;;;;15.50;3.72;;;20.20;73.60;;;;;;10400934;28;20040;-58
2023/09/04 08:31:51;;;;;;;8.30;3.28;;;20.20;73.60;;;;;;10391648;28;20401;-58
2023/09/04 08:36:51;;;;;;;7.53;3.05;;;20.20;74.10;;;;;;10366751;28;20037;-59
2023/09/04 08:41:53;;;;;;;9.25;2.80;;;20.20;73.50;;;;;;10366100;28;20044;-59
2023/09/04 08:46:58;;;;;;;5.00;2.58;;;20.30;73.50;;;;;;10366422;28;20038;-58
2023/09/04 08:52:00;;;;;;;5.20;2.70;;;20.30;73.60;;;;;;10388771;28;20137;-58
2023/09/04 08:57:01;;;;;;;4.93;3.10;;;20.30;73.60;;;;;;10408752;28;20039;-59
2023/09/04 09:02:04;;;;;;;4.72;2.55;;;20.30;73.50;;;;;;10400258;28;20036;-58
2023/09/04 09:07:05;;;;;;;7.55;3.28;;;20.30;73.50;;;;;;10414392;28;20041;-59
2023/09/04 09:12:06;;;;;;;6.20;3.05;;;20.30;73.60;;;;;;10377437;28;20034;-58
2023/09/04 09:17:14;;;;;;;4.90;3.08;;;20.30;73.70;;;;;;10397206;28;20140;-59
2023/09/04 09:22:17;;;;;;;6.40;2.85;;;20.50;73.60;;;;;;10405635;28;20026;-58
2023/09/04 09:27:27;;;;;;;6.18;2.83;;;20.40;73.50;;;;;;10412759;28;20041;-57
2023/09/04 09:32:32;;;;;;;;;;;20.40;73.50;;;;;;10408663;28;20108;-59
2023/09/04 09:37:33;;;;;;;9.55;3.25;;;20.40;73.50;;;;;;10410257;28;20375;-59
2023/09/04 09:42:35;;;;;;;5.57;2.72;;;20.40;73.40;;;;;;10400620;28;20377;-58
2023/09/04 09:47:36;;;;;;;8.15;2.92;;;20.50;73.50;;;;;;10399011;28;20077;-61
2023/09/04 09:52:36;;;;;;;9.10;3.63;;;20.50;73.60;;;;;;10382926;28;20052;-61
2023/09/04 09:57:37;;;;;;;6.75;2.95;;;20.50;73.70;;;;;;10411941;28;20417;-60
2023/09/04 10:02:38;;;;;;;6.70;2.72;;;20.50;73.60;;;;;;10385206;28;20033;-61
2023/09/04 10:07:40;;;;;;;8.15;2.85;;;20.50;73.60;;;;;;10394653;28;20037;-61
2023/09/04 10:12:56;;;;;;;9.15;3.05;;;20.60;73.60;;;;;;10370983;28;20050;-59
2023/09/04 10:18:18;;;;;;;9.32;2.95;;;20.70;73.40;;;;;;10404909;28;20041;-59
2023/09/04 10:23:27;;;;;;;4.88;2.78;;;20.70;73.40;;;;;;10392535;28;20026;-57
2023/09/04 10:28:32;;;;;;;;;;;20.70;73.50;;;;;;10391918;28;20038;-59
2023/09/04 10:33:37;;;;;;;6.53;2.90;;;20.70;73.40;;;;;;10381935;28;19940;-58
2023/09/04 10:38:38;;;;;;;7.45;3.28;;;20.70;73.40;;;;;;10385742;28;20026;-59
2023/09/04 10:43:40;;;;;;;11.18;2.95;;;20.80;73.40;;;;;;10369548;28;20038;-59
2023/09/04 10:48:49;;;;;;;15.10;4.60;;;20.80;73.90;;;;;;10369868;28;20471;-60
2023/09/04 10:53:50;;;;;;;19.95;3.83;;;20.80;73.90;;;;;;10380050;28;20065;-60
2023/09/04 10:59:04;;;;;;;15.70;3.78;;;20.80;73.80;;;;;;10369271;28;20068;-59
2023/09/04 11:04:07;;;;;;;17.15;4.65;;;20.80;73.60;;;;;;10368911;28;20123;-59
2023/09/04 11:09:14;;;;;;;11.38;3.80;;;20.80;73.70;;;;;;10369166;28;20038;-60
2023/09/04 11:14:15;;;;;;;9.15;3.10;;;20.80;73.90;;;;;;10370749;28;20050;-59
2023/09/04 11:19:18;;;;;;;11.25;3.50;;;20.80;73.90;;;;;;10384924;28;20420;-59
2023/09/04 11:24:19;;;;;;;6.97;3.25;;;20.80;73.90;;;;;;10395712;28;20041;-59
2023/09/04 11:29:20;;;;;;;5.35;2.78;;;20.80;74.00;;;;;;10414429;28;20045;-60
2023/09/04 11:34:21;;;;;;;9.52;3.50;;;20.80;74.00;;;;;;10367826;28;20041;-60
2023/09/04 11:39:22;;;;;;;6.32;3.38;;;20.90;73.80;;;;;;10406119;28;20030;-59
2023/09/04 11:44:23;;;;;;;5.72;3.05;;;20.90;73.70;;;;;;10408174;28;20595;-59
2023/09/04 11:49:24;;;;;;;8.55;3.25;;;20.90;73.80;;;;;;10407623;28;20667;-60
2023/09/04 11:54:37;;;;;;;4.90;3.33;;;21.00;73.60;;;;;;10367277;28;20461;-59
2023/09/04 11:59:41;;;;;;;7.38;3.15;;;21.00;73.60;;;;;;10393016;28;20032;-60
2023/09/04 12:04:42;;;;;;;5.28;3.10;;;20.90;73.60;;;;;;10404667;28;20041;-60
2023/09/04 12:09:43;;;;;;;5.30;3.10;;;20.90;73.70;;;;;;10367569;28;20041;-59
2023/09/04 12:14:45;;;;;;;6.78;3.42;;;20.90;73.70;;;;;;10371435;28;20037;-60
2023/09/04 12:19:45;;;;;;;20.17;4.65;;;21.00;73.90;;;;;;10379520;28;20065;-60
2023/09/04 12:25:08;;;;;;;23.42;5.53;;;21.10;73.50;;;;;;10366208;28;20030;-59
2023/09/04 12:30:11;;;;;;;20.92;3.55;;;21.20;73.60;;;;;;10385783;28;20025;-61
2023/09/04 12:35:12;;;;;;;17.08;5.00;;;21.20;73.50;;;;;;10407115;28;20055;-63
2023/09/04 12:40:12;;;;;;;27.35;6.00;;;21.20;73.40;;;;;;10375711;28;20044;-60
2023/09/04 12:45:13;;;;;;;21.30;6.68;;;21.20;73.60;;;;;;10374226;28;20099;-60
2023/09/04 12:50:14;;;;;;;29.63;5.10;;;21.30;73.80;;;;;;10405924;28;20399;-62
2023/09/04 12:55:15;;;;;;;20.77;5.97;;;21.40;73.10;;;;;;10399040;28;20032;-58
2023/09/04 13:00:16;;;;;;;23.02;5.28;;;21.50;72.90;;;;;;10405955;28;20025;-59
2023/09/04 13:05:17;;;;;;;18.25;6.05;;;21.40;72.90;;;;;;10390361;28;20396;-59
2023/09/04 13:10:18;;;;;;;11.95;5.00;;;21.50;72.70;;;;;;10390634;28;20384;-58
2023/09/04 13:15:19;;;;;;;10.98;4.90;;;21.50;72.70;;;;;;10389853;28;20568;-58
2023/09/04 13:20:20;;;;;;;18.67;5.55;;;21.50;72.70;;;;;;10399955;28;20026;-58
2023/09/04 13:25:21;;;;;;;19.60;6.20;;;21.60;72.80;;;;;;10373503;28;20029;-57
2023/09/04 13:30:22;;;;;;;20.42;5.85;;;21.50;72.90;;;;;;10391130;28;20037;-57
2023/09/04 13:35:23;;;;;;;26.05;7.22;;;21.50;73.30;;;;;;10374084;28;20107;-59
2023/09/04 13:40:23;;;;;;;33.30;7.13;;;21.50;73.40;;;;;;10372549;28;20053;-58
2023/09/04 13:45:24;;;;;;;28.90;6.70;;;21.60;73.60;;;;;;10372958;28;20048;-57
2023/09/04 13:50:25;;;;;;;19.33;6.03;;;21.50;74.00;;;;;;10370489;28;20029;-58
2023/09/04 13:55:26;;;;;;;23.58;6.80;;;21.50;74.20;;;;;;10371906;28;20556;-55
2023/09/04 14:00:26;;;;;;;14.40;5.35;;;21.40;73.90;;;;;;10371519;28;20025;-58
2023/09/04 14:05:29;;;;;;;17.33;6.10;;;21.40;74.00;;;;;;10371457;28;20393;-57
2023/09/04 14:10:30;;;;;;;26.40;7.03;;;21.30;74.00;;;;;;10406973;28;20026;-57
2023/09/04 14:15:31;;;;;;;29.33;6.97;;;21.30;74.30;;;;;;10396587;28;20095;-56
2023/09/04 14:20:31;;;;;;;22.15;6.00;;;21.40;74.10;;;;;;10371026;28;20033;-57
2023/09/04 14:25:32;;;;;;;26.02;6.70;;;21.40;73.50;;;;;;10371285;28;20042;-57
2023/09/04 14:30:33;;;;;;;38.00;8.75;;;21.40;73.60;;;;;;10389468;28;20068;-58
2023/09/04 14:35:35;;;;;;;33.72;12.93;;;21.40;74.10;;;;;;10380438;28;20120;-58
2023/09/04 14:40:44;;;;;;;19.35;9.70;;;21.80;82.20;;;;;;10396061;28;20049;-58
2023/09/04 14:45:44;;;;;;;17.47;7.83;;;22.00;80.10;;;;;;10371479;28;20029;-58
2023/09/04 14:50:45;;;;;;;15.55;6.90;;;22.00;79.00;;;;;;10353553;28;20092;-60
2023/09/04 14:55:46;;;;;;;13.43;6.32;;;22.00;77.10;;;;;;10388459;28;20038;-56
2023/09/04 15:00:48;;;;;;;21.60;7.85;;;22.00;76.90;;;;;;10409612;28;20104;-57
2023/09/04 15:06:00;;;;;;;14.15;5.93;;;22.00;77.00;;;;;;10407555;28;20072;-57
2023/09/04 15:11:02;;;;;;;16.83;5.97;;;21.90;77.40;;;;;;10368831;28;20030;-57
2023/09/04 15:16:04;;;;;;;17.42;7.38;;;21.90;77.50;;;;;;10384540;28;20132;-57
2023/09/04 15:21:06;;;;;;;23.25;7.47;;;21.90;77.00;;;;;;10382311;28;20037;-59
2023/09/04 15:26:07;;;;;;;23.20;7.88;;;21.80;77.30;;;;;;10400908;28;20026;-57
2023/09/04 15:31:08;;;;;;;14.75;6.22;;;21.50;76.30;;;;;;10398771;28;20041;-59
2023/09/04 15:36:09;;;;;;;21.40;7.05;;;21.50;76.20;;;;;;10375947;28;20033;-58
2023/09/04 15:41:10;;;;;;;16.83;6.53;;;21.60;76.00;;;;;;10374432;28;20732;-57
2023/09/04 15:46:11;;;;;;;22.05;6.60;;;21.70;76.70;;;;;;10367379;28;20084;-58
2023/09/04 15:51:11;;;;;;;15.18;5.30;;;21.70;76.10;;;;;;10368716;28;20042;-57
2023/09/04 15:56:13;;;;;;;13.35;6.10;;;21.60;76.20;;;;;;10367564;28;20030;-57
2023/09/04 16:01:14;;;;;;;21.80;7.32;;;21.60;76.30;;;;;;10366687;28;20033;-59
2023/09/04 16:06:14;;;;;;;14.25;6.30;;;21.60;76.20;;;;;;10371331;28;20096;-57
2023/09/04 16:11:15;;;;;;;13.05;6.25;;;21.60;76.30;;;;;;10382130;28;20034;-57
2023/09/04 16:16:16;;;;;;;20.17;7.15;;;21.50;76.00;;;;;;10384978;28;20050;-57
2023/09/04 16:21:18;;;;;;;20.88;6.32;;;21.40;76.00;;;;;;10367547;28;20053;-56
2023/09/04 16:26:18;;;;;;;9.43;5.38;;;21.40;75.70;;;;;;10367803;28;20026;-57
2023/09/04 16:31:19;;;;;;;10.23;6.15;;;21.30;75.80;;;;;;10385536;28;20111;-56
2023/09/04 16:36:20;;;;;;;16.50;7.00;;;21.30;75.90;;;;;;10382758;28;20029;-57
2023/09/04 16:41:20;;;;;;;8.68;5.60;;;21.30;75.80;;;;;;10370495;28;20045;-57
2023/09/04 16:46:21;;;;;;;8.07;5.55;;;21.30;75.90;;;;;;10391560;28;20055;-58
2023/09/04 16:51:22;;;;;;;9.05;5.45;;;21.30;75.80;;;;;;10394305;28;20217;-58
2023/09/04 16:56:23;;;;;;;8.93;4.65;;;21.20;75.70;;;;;;10367280;28;20038;-58
2023/09/04 17:01:24;;;;;;;12.20;6.82;;;21.20;75.70;;;;;;10366587;28;20370;-58
2023/09/04 17:06:24;;;;;;;8.18;4.88;;;21.20;75.70;;;;;;10370198;28;20029;-57
2023/09/04 17:11:25;;;;;;;9.60;5.30;;;21.20;75.70;;;;;;10383086;28;20022;-59
2023/09/04 17:16:26;;;;;;;10.98;5.97;;;21.20;75.80;;;;;;10385663;28;20045;-58
2023/09/04 17:21:27;;;;;;;7.55;5.15;;;21.20;75.70;;;;;;10412485;28;20056;-56
2023/09/04 17:26:28;;;;;;;11.13;6.47;;;21.20;75.80;;;;;;10376119;28;20029;-57
2023/09/04 17:31:28;;;;;;;7.18;5.07;;;21.20;76.20;;;;;;10397141;28;20380;-59
2023/09/04 17:36:29;;;;;;;7.55;5.40;;;21.30;76.00;;;;;;10390823;28;20088;-58
2023/09/04 17:41:30;;;;;;;11.25;5.30;;;21.20;76.10;;;;;;10390852;28;20025;-57
2023/09/04 17:46:31;;;;;;;10.07;5.18;;;21.20;75.80;;;;;;10414039;28;20026;-57
2023/09/04 17:51:31;;;;;;;11.05;5.30;;;21.20;76.10;;;;;;10398806;28;20045;-58
2023/09/04 17:56:32;;;;;;;8.02;5.38;;;21.20;76.40;;;;;;10376318;28;20068;-57
2023/09/04 18:01:33;;;;;;;11.48;6.18;;;21.20;76.20;;;;;;10372465;28;20045;-58
2023/09/04 18:06:34;;;;;;;8.18;5.13;;;21.20;76.10;;;;;;10380818;28;20025;-57
2023/09/04 18:11:34;;;;;;;10.68;5.28;;;21.20;76.20;;;;;;10389855;28;20034;-57
2023/09/04 18:16:35;;;;;;;8.43;4.90;;;21.20;76.40;;;;;;10388253;28;20373;-59
2023/09/04 18:21:36;;;;;;;7.50;4.57;;;21.10;76.20;;;;;;10384199;28;20481;-60
2023/09/04 18:26:38;;;;;;;8.65;5.05;;;21.10;76.50;;;;;;10403936;28;20026;-57
2023/09/04 18:31:39;;;;;;;7.72;4.82;;;21.20;76.20;;;;;;10390294;28;20025;-57
2023/09/04 18:36:40;;;;;;;7.35;5.15;;;21.20;76.60;;;;;;10390804;28;20379;-60
2023/09/04 18:41:40;;;;;;;9.85;5.30;;;21.20;76.50;;;;;;10385548;28;20029;-58
2023/09/04 18:46:41;;;;;;;18.65;5.72;;;21.30;76.70;;;;;;10388177;28;20041;-57
2023/09/04 18:51:42;;;;;;;6.68;4.72;;;21.30;76.40;;;;;;10396173;28;20033;-57
2023/09/04 18:56:43;;;;;;;6.82;4.47;;;21.20;76.20;;;;;;10370252;28;20046;-58
2023/09/04 19:01:44;;;;;;;7.28;4.35;;;21.10;76.40;;;;;;10369288;28;20485;-55
2023/09/04 19:06:45;;;;;;;6.78;4.47;;;21.10;76.40;;;;;;10381144;28;20037;-55
2023/09/04 19:11:46;;;;;;;6.53;5.43;;;21.10;76.40;;;;;;10384756;28;20034;-54
2023/09/04 19:16:46;;;;;;;6.28;4.68;;;21.00;76.40;;;;;;10385875;28;20409;-56
2023/09/04 19:21:47;;;;;;;8.70;5.25;;;21.10;76.40;;;;;;10381868;28;20373;-55
2023/09/04 19:26:48;;;;;;;4.55;3.60;;;21.00;76.30;;;;;;10383095;28;20028;-55
2023/09/04 19:31:49;;;;;;;5.95;4.38;;;21.00;76.30;;;;;;10384187;28;20539;-55
2023/09/04 19:36:50;;;;;;;9.65;4.68;;;21.00;76.30;;;;;;10386725;28;20021;-55
2023/09/04 19:41:51;;;;;;;6.95;4.82;;;21.00;76.30;;;;;;10382592;28;20033;-55
2023/09/04 19:46:51;;;;;;;7.20;4.50;;;21.00;76.20;;;;;;10391062;28;20029;-56
2023/09/04 19:51:52;;;;;;;5.45;3.92;;;21.00;76.20;;;;;;10402913;28;20038;-55
2023/09/04 19:56:53;;;;;;;5.85;3.90;;;21.00;76.10;;;;;;10367980;28;20038;-55
2023/09/04 20:01:54;;;;;;;3.90;2.85;;;21.00;76.00;;;;;;10367591;28;20136;-54
2023/09/04 20:06:55;;;;;;;4.78;4.00;;;21.00;76.00;;;;;;10370639;28;20030;-55
2023/09/04 20:11:58;;;;;;;4.25;2.92;;;21.00;75.90;;;;;;10367592;28;20041;-55
2023/09/04 20:17:00;;;;;;;3.28;2.58;;;21.00;76.00;;;;;;10391353;28;20064;-55
2023/09/04 20:22:00;;;;;;;3.83;2.85;;;21.00;75.90;;;;;;10401655;28;20022;-55
2023/09/04 20:27:01;;;;;;;3.95;3.30;;;20.90;75.80;;;;;;10367548;28;20030;-55
2023/09/04 20:32:02;;;;;;;4.20;3.15;;;20.90;75.90;;;;;;10412448;28;20230;-55
2023/09/04 20:37:04;;;;;;;4.30;3.05;;;21.00;75.80;;;;;;10393455;28;20063;-55
2023/09/04 20:42:07;;;;;;;5.20;3.47;;;20.90;75.70;;;;;;10367376;28;20025;-56
2023/09/04 20:47:07;;;;;;;4.22;3.40;;;20.90;75.90;;;;;;10367249;28;20443;-55
2023/09/04 20:52:09;;;;;;;3.45;3.05;;;20.90;75.80;;;;;;10370713;28;20026;-55
2023/09/04 20:57:11;;;;;;;5.97;3.53;;;20.90;75.70;;;;;;10375175;28;20117;-55
2023/09/04 21:02:11;;;;;;;3.83;3.40;;;20.90;75.60;;;;;;10374957;28;20053;-55
2023/09/04 23:25:25;;;;;;;4.53;3.40;;;20.90;75.30;;;;;;10369205;28;20050;-56
2023/09/04 23:30:27;;;;;;;4.00;2.75;;;20.80;75.30;;;;;;10398582;28;20280;-55
2023/09/04 23:46:28;;;;;;;2.58;2.38;;;20.80;75.20;;;;;;10445167;28;20351;-55
2023/09/04 23:51:29;;;;;;;3.47;2.55;;;20.80;75.20;;;;;;10444577;28;20051;-55
2023/09/04 23:56:32;;;;;;;3.40;2.55;;;20.80;75.10;;;;;;10444612;28;20141;-55
